createdAt,value
2018-07-25T00:00:42.159Z,24.60
2018-07-25T00:03:10.454Z,24.60
2018-07-25T00:05:38.654Z,24.60
2018-07-25T00:08:06.843Z,24.60
2018-07-25T00:10:40.415Z,24.50
2018-07-25T00:13:09.289Z,24.50
2018-07-25T00:15:37.498Z,24.50
2018-07-25T00:18:05.760Z,24.40
2018-07-25T00:20:34.002Z,24.40
2018-07-25T00:23:02.197Z,24.40
2018-07-25T00:25:30.348Z,24.30
2018-07-25T00:27:58.534Z,24.30
2018-07-25T00:30:26.826Z,24.30
2018-07-25T00:32:54.997Z,24.30
2018-07-25T00:35:23.712Z,24.30
2018-07-25T00:37:52.048Z,24.20
2018-07-25T00:40:20.218Z,24.20
2018-07-25T00:42:48.984Z,24.20
2018-07-25T00:45:17.498Z,24.10
2018-07-25T00:47:45.744Z,24.10
2018-07-25T00:50:13.914Z,24.20
2018-07-25T00:52:42.154Z,24.10
2018-07-25T00:55:10.344Z,24.10
2018-07-25T00:57:38.554Z,24.10
2018-07-25T01:00:06.758Z,24.00
2018-07-25T01:02:34.953Z,24.00
2018-07-25T01:05:03.252Z,23.90
2018-07-25T01:07:31.547Z,23.90
2018-07-25T01:09:59.692Z,23.80
2018-07-25T01:12:27.925Z,23.80
2018-07-25T01:14:56.367Z,23.70
2018-07-25T01:17:24.526Z,23.70
2018-07-25T01:19:52.655Z,23.60
2018-07-25T01:22:20.928Z,23.60
2018-07-25T01:24:49.109Z,23.60
2018-07-25T01:27:17.310Z,23.50
2018-07-25T01:29:45.485Z,23.50
2018-07-25T01:32:13.744Z,23.50
2018-07-25T01:34:41.905Z,23.50
2018-07-25T01:37:10.042Z,23.40
2018-07-25T01:39:38.181Z,23.40
2018-07-25T01:42:06.451Z,23.40
2018-07-25T01:44:34.695Z,23.30
2018-07-25T01:47:02.815Z,23.40
2018-07-25T01:49:31.025Z,23.30
2018-07-25T01:51:59.182Z,23.30
2018-07-25T01:54:27.338Z,23.30
2018-07-25T01:56:55.470Z,23.30
2018-07-25T01:59:27.164Z,23.20
2018-07-25T02:01:55.860Z,23.20
2018-07-25T02:04:24.979Z,23.20
2018-07-25T02:06:53.289Z,23.20
2018-07-25T02:09:21.585Z,23.20
2018-07-25T02:11:49.935Z,23.20
2018-07-25T02:14:18.104Z,23.10
2018-07-25T02:16:46.299Z,23.20
2018-07-25T02:19:14.547Z,23.10
2018-07-25T02:21:42.982Z,23.10
2018-07-25T02:24:11.123Z,23.10
2018-07-25T02:26:39.320Z,23.10
2018-07-25T02:29:07.501Z,23.10
2018-07-25T02:31:35.793Z,23.10
2018-07-25T02:34:10.197Z,23.00
2018-07-25T02:36:38.338Z,23.00
2018-07-25T02:39:08.867Z,23.00
2018-07-25T02:41:37.051Z,23.00
2018-07-25T02:44:05.228Z,23.00
2018-07-25T02:46:33.465Z,23.00
2018-07-25T02:49:01.993Z,23.00
2018-07-25T02:51:30.967Z,23.00
2018-07-25T02:53:59.119Z,22.90
2018-07-25T02:56:27.355Z,22.90
2018-07-25T02:58:55.613Z,22.90
2018-07-25T03:01:23.803Z,22.90
2018-07-25T03:03:52.013Z,23.00
2018-07-25T03:06:20.222Z,23.00
2018-07-25T03:08:48.401Z,23.00
2018-07-25T03:11:16.789Z,23.00
2018-07-25T03:13:44.934Z,23.10
2018-07-25T03:16:13.136Z,23.10
2018-07-25T03:18:41.329Z,23.10
2018-07-25T03:21:09.508Z,23.10
2018-07-25T03:23:37.684Z,23.20
2018-07-25T03:26:05.824Z,23.20
2018-07-25T03:28:33.997Z,23.30
2018-07-25T03:31:02.239Z,23.30
2018-07-25T03:33:30.525Z,23.50
2018-07-25T03:35:59.479Z,23.60
2018-07-25T03:38:28.345Z,23.70
2018-07-25T03:40:56.535Z,23.80
2018-07-25T03:43:24.678Z,23.90
2018-07-25T03:45:52.963Z,24.00
2018-07-25T03:48:21.152Z,24.00
2018-07-25T03:50:49.474Z,24.00
2018-07-25T03:53:17.718Z,24.00
2018-07-25T03:55:45.920Z,23.90
2018-07-25T03:58:14.138Z,23.90
2018-07-25T04:00:42.410Z,24.00
2018-07-25T04:03:10.592Z,24.00
2018-07-25T04:05:38.918Z,24.00
2018-07-25T04:08:07.145Z,24.10
2018-07-25T04:10:35.414Z,24.20
2018-07-25T04:13:03.564Z,24.40
2018-07-25T04:15:31.736Z,24.50
2018-07-25T04:17:59.863Z,24.80
2018-07-25T04:20:28.061Z,25.30
2018-07-25T04:22:56.227Z,25.40
2018-07-25T04:25:24.425Z,25.40
2018-07-25T04:27:52.675Z,26.30
2018-07-25T04:30:20.873Z,26.40
2018-07-25T04:32:49.083Z,26.80
2018-07-25T04:35:17.327Z,27.60
2018-07-25T04:37:46.023Z,29.10
2018-07-25T04:40:14.195Z,29.30
2018-07-25T04:42:42.464Z,28.90
2018-07-25T04:45:11.367Z,28.70
2018-07-25T04:47:42.745Z,28.20
2018-07-25T04:50:11.081Z,27.80
2018-07-25T04:52:39.330Z,27.20
2018-07-25T04:55:07.680Z,26.90
2018-07-25T04:57:35.980Z,27.40
2018-07-25T05:00:04.696Z,29.10
2018-07-25T05:02:32.864Z,29.40
2018-07-25T05:05:01.017Z,29.40
2018-07-25T05:07:29.434Z,29.50
2018-07-25T05:09:57.592Z,30.70
2018-07-25T05:12:25.819Z,32.50
2018-07-25T05:14:53.940Z,34.70
2018-07-25T05:17:22.150Z,36.80
2018-07-25T05:19:50.286Z,38.60
2018-07-25T05:22:18.492Z,40.00
2018-07-25T05:24:46.756Z,40.80
2018-07-25T05:27:14.966Z,41.80
2018-07-25T05:29:43.220Z,42.90
2018-07-25T05:32:11.852Z,43.70
2018-07-25T05:34:40.144Z,44.30
2018-07-25T05:37:08.888Z,44.80
2018-07-25T05:39:37.097Z,45.50
2018-07-25T05:42:05.315Z,46.30
2018-07-25T05:44:33.638Z,47.10
2018-07-25T05:47:02.409Z,47.80
2018-07-25T05:49:30.823Z,48.20
2018-07-25T05:51:58.998Z,48.60
2018-07-25T05:54:27.164Z,49.00
2018-07-25T05:56:56.055Z,49.40
2018-07-25T05:59:24.243Z,49.90
2018-07-25T06:01:52.529Z,50.50
2018-07-25T06:04:20.714Z,50.90
2018-07-25T06:06:48.889Z,51.40
2018-07-25T06:09:17.041Z,51.50
2018-07-25T06:11:45.307Z,51.60
2018-07-25T06:14:13.464Z,51.50
2018-07-25T06:16:41.693Z,51.60
2018-07-25T06:19:10.105Z,51.80
2018-07-25T06:21:38.460Z,51.90
2018-07-25T06:24:06.839Z,52.20
2018-07-25T06:26:35.044Z,52.20
2018-07-25T06:29:03.248Z,52.20
2018-07-25T06:31:31.428Z,52.00
2018-07-25T06:33:59.573Z,51.90
2018-07-25T06:36:28.062Z,52.40
2018-07-25T06:38:56.156Z,52.60
2018-07-25T06:41:24.343Z,53.20
2018-07-25T06:43:52.577Z,53.70
2018-07-25T06:46:20.828Z,53.40
2018-07-25T06:48:49.125Z,53.90
2018-07-25T06:51:17.311Z,54.20
2018-07-25T06:53:45.611Z,54.10
2018-07-25T06:56:13.938Z,54.40
2018-07-25T06:58:42.113Z,55.00
2018-07-25T07:01:10.276Z,55.70
2018-07-25T07:03:38.509Z,55.70
2018-07-25T07:06:06.855Z,55.40
2018-07-25T07:08:35.061Z,54.90
2018-07-25T07:11:03.332Z,54.90
2018-07-25T07:13:31.532Z,55.40
2018-07-25T07:15:59.752Z,55.60
2018-07-25T07:18:27.991Z,54.00
2018-07-25T07:20:56.314Z,52.90
2018-07-25T07:23:24.591Z,51.70
2018-07-25T07:25:52.988Z,50.50
2018-07-25T07:28:21.197Z,49.80
2018-07-25T07:30:49.414Z,49.50
2018-07-25T07:33:17.564Z,49.80
2018-07-25T07:35:46.122Z,49.60
2018-07-25T07:38:14.318Z,48.90
2018-07-25T07:40:42.477Z,48.30
2018-07-25T07:43:10.673Z,47.80
2018-07-25T07:45:38.802Z,47.00
2018-07-25T07:48:07.049Z,46.40
2018-07-25T07:50:35.315Z,46.20
2018-07-25T07:53:03.560Z,45.40
2018-07-25T07:55:31.734Z,44.50
2018-07-25T07:58:00.098Z,43.80
2018-07-25T08:00:28.268Z,43.30
2018-07-25T08:02:56.540Z,43.10
2018-07-25T08:05:24.767Z,43.40
2018-07-25T08:07:52.950Z,43.90
2018-07-25T08:10:21.224Z,44.30
2018-07-25T08:12:49.521Z,44.10
2018-07-25T08:15:17.748Z,43.70
2018-07-25T08:17:46.006Z,43.20
2018-07-25T08:20:14.206Z,42.90
2018-07-25T08:22:42.411Z,42.50
2018-07-25T08:25:10.684Z,41.90
2018-07-25T08:27:38.950Z,42.10
2018-07-25T08:30:07.190Z,41.90
2018-07-25T08:32:35.446Z,41.40
2018-07-25T08:35:03.692Z,41.10
2018-07-25T08:37:32.054Z,40.70
2018-07-25T08:40:00.224Z,39.80
2018-07-25T08:42:28.410Z,38.60
2018-07-25T08:44:56.662Z,37.80
2018-07-25T08:47:24.959Z,37.50
2018-07-25T08:49:53.174Z,37.60
2018-07-25T08:52:21.480Z,37.00
2018-07-25T08:54:49.668Z,36.20
2018-07-25T08:57:17.904Z,35.60
2018-07-25T08:59:46.169Z,34.90
2018-07-25T09:02:14.388Z,34.40
2018-07-25T09:04:42.636Z,34.00
2018-07-25T09:07:10.934Z,34.10
2018-07-25T09:09:39.256Z,34.50
2018-07-25T09:12:07.398Z,35.10
2018-07-25T09:14:35.668Z,35.80
2018-07-25T09:17:03.872Z,36.00
2018-07-25T09:19:32.692Z,35.80
2018-07-25T09:22:00.862Z,35.60
2018-07-25T09:24:29.070Z,35.60
2018-07-25T09:26:57.304Z,35.80
2018-07-25T09:29:25.535Z,35.90
2018-07-25T09:31:53.957Z,35.50
2018-07-25T09:34:22.371Z,34.70
2018-07-25T09:36:50.491Z,34.20
2018-07-25T09:39:18.666Z,34.10
2018-07-25T09:41:46.893Z,33.90
2018-07-25T09:44:15.098Z,33.80
2018-07-25T09:46:43.615Z,33.80
2018-07-25T09:49:11.797Z,33.70
2018-07-25T09:51:40.009Z,33.80
2018-07-25T09:54:08.391Z,33.80
2018-07-25T09:56:36.650Z,34.10
2018-07-25T09:59:04.984Z,34.10
2018-07-25T10:01:33.228Z,34.10
2018-07-25T10:04:01.474Z,34.20
2018-07-25T10:06:29.861Z,34.10
2018-07-25T10:08:58.149Z,33.60
2018-07-25T10:11:29.452Z,33.10
2018-07-25T10:13:57.677Z,32.90
2018-07-25T10:16:25.879Z,33.00
2018-07-25T10:18:54.831Z,33.10
2018-07-25T10:21:23.084Z,33.30
2018-07-25T10:23:51.317Z,33.60
2018-07-25T10:26:19.629Z,33.70
2018-07-25T10:28:47.845Z,33.90
2018-07-25T10:31:16.085Z,34.00
2018-07-25T10:33:44.325Z,33.80
2018-07-25T10:36:12.655Z,33.70
2018-07-25T10:38:41.154Z,33.40
2018-07-25T10:41:09.509Z,33.10
2018-07-25T10:43:37.762Z,32.90
2018-07-25T10:46:06.046Z,32.80
2018-07-25T10:48:34.417Z,32.60
2018-07-25T10:51:02.683Z,32.50
2018-07-25T10:53:30.920Z,32.40
2018-07-25T10:55:59.855Z,32.30
2018-07-25T10:58:28.062Z,32.20
2018-07-25T11:00:56.456Z,32.00
2018-07-25T11:03:24.748Z,32.10
2018-07-25T11:05:53.061Z,32.00
2018-07-25T11:08:21.904Z,31.90
2018-07-25T11:10:51.295Z,31.90
2018-07-25T11:13:19.578Z,31.70
2018-07-25T11:15:47.877Z,31.50
2018-07-25T11:18:16.412Z,31.40
2018-07-25T11:20:44.652Z,31.60
2018-07-25T11:23:13.034Z,31.70
2018-07-25T11:25:41.436Z,31.90
2018-07-25T11:28:09.736Z,31.90
2018-07-25T11:30:38.028Z,31.90
2018-07-25T11:33:06.253Z,31.80
2018-07-25T11:35:34.600Z,31.70
2018-07-25T11:38:02.991Z,31.90
2018-07-25T11:40:31.226Z,31.70
2018-07-25T11:42:59.446Z,31.80
2018-07-25T11:45:27.739Z,31.80
2018-07-25T11:47:56.104Z,31.80
2018-07-25T11:50:24.571Z,31.80
2018-07-25T11:52:52.831Z,31.70
2018-07-25T11:55:21.184Z,31.70
2018-07-25T11:57:49.439Z,31.70
2018-07-25T12:00:17.586Z,31.70
2018-07-25T12:02:45.887Z,31.90
2018-07-25T12:05:14.012Z,32.10
2018-07-25T12:07:42.202Z,32.20
2018-07-25T12:10:10.438Z,32.10
2018-07-25T12:12:38.637Z,32.10
2018-07-25T12:15:07.474Z,32.10
2018-07-25T12:17:35.959Z,32.10
2018-07-25T12:20:04.285Z,32.10
2018-07-25T12:22:32.616Z,31.90
2018-07-25T12:25:00.881Z,31.90
2018-07-25T12:27:29.336Z,32.00
2018-07-25T12:29:57.579Z,32.00
2018-07-25T12:32:25.772Z,31.90
2018-07-25T12:34:54.066Z,31.90
2018-07-25T12:37:22.342Z,31.90
2018-07-25T12:39:50.626Z,31.80
2018-07-25T12:42:18.819Z,31.70
2018-07-25T12:44:46.994Z,31.70
2018-07-25T12:47:15.649Z,31.80
2018-07-25T12:49:43.856Z,32.10
2018-07-25T12:52:12.154Z,32.20
2018-07-25T12:54:40.334Z,32.20
2018-07-25T12:57:10.456Z,32.20
2018-07-25T12:59:38.628Z,32.30
2018-07-25T13:02:06.864Z,32.20
2018-07-25T13:04:35.213Z,32.10
2018-07-25T13:07:03.414Z,32.20
2018-07-25T13:09:31.583Z,32.10
2018-07-25T13:11:59.844Z,32.20
2018-07-25T13:14:28.036Z,32.30
2018-07-25T13:16:56.239Z,32.30
2018-07-25T13:19:24.851Z,32.20
2018-07-25T13:21:53.048Z,32.10
2018-07-25T13:24:21.240Z,32.10
2018-07-25T13:26:49.531Z,32.10
2018-07-25T13:29:17.793Z,32.10
2018-07-25T13:31:46.133Z,32.20
2018-07-25T13:34:14.350Z,32.30
2018-07-25T13:36:42.647Z,32.30
2018-07-25T13:39:11.056Z,32.40
2018-07-25T13:41:39.603Z,32.30
2018-07-25T13:44:08.281Z,32.10
2018-07-25T13:46:36.517Z,32.10
2018-07-25T13:49:04.766Z,32.10
2018-07-25T13:51:32.998Z,32.10
2018-07-25T13:54:01.281Z,32.10
2018-07-25T13:56:29.525Z,32.20
2018-07-25T13:58:57.818Z,32.20
2018-07-25T14:01:25.952Z,32.20
2018-07-25T14:03:54.142Z,32.20
2018-07-25T14:06:22.300Z,32.30
2018-07-25T14:08:50.532Z,32.30
2018-07-25T14:11:18.950Z,32.20
2018-07-25T14:13:47.204Z,32.10
2018-07-25T14:16:15.377Z,32.10
2018-07-25T14:18:43.915Z,31.90
2018-07-25T14:21:12.326Z,31.90
2018-07-25T14:23:40.590Z,32.00
2018-07-25T14:26:08.870Z,32.00
2018-07-25T14:28:40.638Z,32.10
2018-07-25T14:31:08.844Z,32.10
2018-07-25T14:33:37.027Z,32.00
2018-07-25T14:36:05.513Z,31.80
2018-07-25T14:38:33.741Z,31.80
2018-07-25T14:41:03.023Z,31.80
2018-07-25T14:43:31.507Z,31.90
2018-07-25T14:45:59.769Z,31.90
2018-07-25T14:48:27.906Z,31.90
2018-07-25T14:50:56.211Z,31.90
2018-07-25T14:53:24.433Z,31.80
2018-07-25T14:55:52.623Z,31.80
2018-07-25T14:58:20.867Z,31.80
2018-07-25T15:00:49.115Z,31.80
2018-07-25T15:03:17.535Z,31.80
2018-07-25T15:05:46.125Z,31.90
2018-07-25T15:08:14.370Z,31.90
2018-07-25T15:10:42.715Z,32.00
2018-07-25T15:13:11.001Z,32.00
2018-07-25T15:15:39.174Z,31.90
2018-07-25T15:18:07.524Z,31.90
2018-07-25T15:20:35.769Z,31.80
2018-07-25T15:23:03.947Z,31.80
2018-07-25T15:25:32.224Z,31.70
2018-07-25T15:28:00.414Z,31.70
2018-07-25T15:30:28.859Z,31.70
2018-07-25T15:32:57.079Z,31.60
2018-07-25T15:35:25.326Z,31.60
2018-07-25T15:37:53.511Z,31.70
2018-07-25T15:40:21.702Z,31.70
2018-07-25T15:42:49.951Z,31.70
2018-07-25T15:45:18.316Z,31.80
2018-07-25T15:47:46.566Z,31.80
2018-07-25T15:50:14.810Z,31.70
2018-07-25T15:52:43.013Z,31.70
2018-07-25T15:55:11.243Z,31.60
2018-07-25T15:57:39.414Z,31.70
2018-07-25T16:00:08.548Z,31.80
2018-07-25T16:02:36.988Z,31.90
2018-07-25T16:05:05.160Z,32.00
2018-07-25T16:07:34.040Z,32.20
2018-07-25T16:10:02.247Z,32.30
2018-07-25T16:12:30.471Z,32.30
2018-07-25T16:14:58.690Z,32.20
2018-07-25T16:20:01.443Z,32.10
2018-07-25T16:22:29.677Z,32.10
2018-07-25T16:24:57.928Z,32.10
2018-07-25T16:27:26.168Z,32.20
2018-07-25T16:29:54.352Z,32.20
2018-07-25T16:32:22.670Z,32.10
2018-07-25T16:34:51.107Z,32.00
2018-07-25T16:37:19.351Z,31.90
2018-07-25T16:39:47.538Z,31.80
2018-07-25T16:42:15.750Z,31.80
2018-07-25T16:44:43.973Z,31.70
2018-07-25T16:47:12.889Z,31.70
2018-07-25T16:49:41.769Z,31.60
2018-07-25T16:52:09.984Z,31.60
2018-07-25T16:54:38.310Z,31.60
2018-07-25T16:57:06.528Z,31.60
2018-07-25T16:59:34.798Z,31.50
2018-07-25T17:02:03.044Z,31.50
2018-07-25T17:04:31.279Z,31.30
2018-07-25T17:06:59.464Z,31.30
2018-07-25T17:09:27.698Z,31.30
2018-07-25T17:11:55.908Z,31.20
2018-07-25T17:14:24.072Z,31.20
2018-07-25T17:16:52.284Z,31.20
2018-07-25T17:19:20.553Z,31.20
2018-07-25T17:21:48.732Z,31.20
2018-07-25T17:24:17.134Z,31.20
2018-07-25T17:26:45.864Z,31.10
2018-07-25T17:29:14.104Z,31.10
2018-07-25T17:31:42.366Z,31.00
2018-07-25T17:34:10.562Z,31.00
2018-07-25T17:36:38.910Z,30.90
2018-07-25T17:39:08.947Z,30.90
2018-07-25T17:41:37.870Z,30.90
2018-07-25T17:44:06.138Z,30.80
2018-07-25T17:46:34.369Z,30.80
2018-07-25T17:49:02.778Z,30.70
2018-07-25T17:51:31.234Z,30.70
2018-07-25T17:53:59.476Z,30.70
2018-07-25T17:56:27.706Z,30.80
2018-07-25T17:58:55.939Z,30.80
2018-07-25T18:01:24.274Z,30.70
2018-07-25T18:03:58.998Z,30.70
2018-07-25T18:06:27.338Z,30.70
2018-07-25T18:08:55.618Z,30.60
2018-07-25T18:11:23.806Z,30.50
2018-07-25T18:13:57.399Z,30.50
2018-07-25T18:16:26.154Z,30.40
2018-07-25T18:18:57.443Z,30.40
2018-07-25T18:21:25.621Z,30.30
2018-07-25T18:23:53.831Z,30.30
2018-07-25T18:26:22.407Z,30.20
2018-07-25T18:28:50.743Z,30.20
2018-07-25T18:31:19.471Z,30.10
2018-07-25T18:33:47.714Z,30.00
2018-07-25T18:36:15.966Z,30.00
2018-07-25T18:38:44.185Z,29.90
2018-07-25T18:41:12.420Z,29.90
2018-07-25T18:43:40.636Z,29.80
2018-07-25T18:46:08.938Z,29.70
2018-07-25T18:48:37.376Z,29.70
2018-07-25T18:51:05.881Z,29.60
2018-07-25T18:53:34.181Z,29.60
2018-07-25T18:56:02.462Z,29.50
2018-07-25T18:58:30.676Z,29.40
2018-07-25T19:00:58.890Z,29.40
2018-07-25T19:03:27.099Z,29.30
2018-07-25T19:05:55.385Z,29.30
2018-07-25T19:08:23.723Z,29.20
2018-07-25T19:10:51.941Z,29.20
2018-07-25T19:13:25.481Z,29.10
2018-07-25T19:15:53.670Z,29.10
2018-07-25T19:18:21.950Z,29.00
2018-07-25T19:20:50.209Z,29.00
2018-07-25T19:23:18.424Z,28.90
2018-07-25T19:25:46.653Z,28.80
2018-07-25T19:28:14.873Z,28.80
2018-07-25T19:30:43.175Z,28.70
2018-07-25T19:33:11.983Z,28.70
2018-07-25T19:35:40.948Z,28.60
2018-07-25T19:38:09.105Z,28.60
2018-07-25T19:40:37.313Z,28.60
2018-07-25T19:43:05.679Z,28.50
2018-07-25T19:45:33.949Z,28.40
2018-07-25T19:48:02.261Z,28.40
2018-07-25T19:50:30.903Z,28.40
2018-07-25T19:52:59.130Z,28.30
2018-07-25T19:55:27.356Z,28.20
2018-07-25T19:57:55.524Z,28.20
2018-07-25T20:00:23.741Z,28.10
2018-07-25T20:02:51.903Z,28.10
2018-07-25T20:05:20.135Z,28.10
2018-07-25T20:07:48.415Z,28.00
2018-07-25T20:10:16.649Z,28.00
2018-07-25T20:12:45.204Z,28.00
2018-07-25T20:15:18.778Z,28.00
2018-07-25T20:17:47.259Z,28.00
2018-07-25T20:20:15.565Z,28.00
2018-07-25T20:22:43.771Z,28.00
2018-07-25T20:25:11.987Z,28.00
2018-07-25T20:27:40.359Z,28.00
2018-07-25T20:30:09.486Z,28.00
2018-07-25T20:32:37.796Z,28.00
2018-07-25T20:35:06.272Z,27.90
2018-07-25T20:37:34.927Z,27.90
2018-07-25T20:40:03.224Z,27.80
2018-07-25T20:42:31.416Z,27.80
2018-07-25T20:44:59.674Z,27.70
2018-07-25T20:47:27.978Z,27.60
2018-07-25T20:49:56.281Z,27.60
2018-07-25T20:52:24.560Z,27.50
2018-07-25T20:54:52.762Z,27.50
2018-07-25T20:57:21.068Z,27.40
2018-07-25T20:59:49.389Z,27.40
2018-07-25T21:02:17.678Z,27.30
2018-07-25T21:04:45.851Z,27.20
2018-07-25T21:07:14.140Z,27.20
2018-07-25T21:09:42.350Z,27.10
2018-07-25T21:12:10.622Z,27.10
2018-07-25T21:14:38.838Z,27.00
2018-07-25T21:17:07.138Z,27.00
2018-07-25T21:19:35.368Z,27.00
2018-07-25T21:22:03.628Z,27.00
2018-07-25T21:24:31.912Z,26.90
2018-07-25T21:27:00.186Z,26.90
2018-07-25T21:29:28.401Z,26.80
2018-07-25T21:31:56.619Z,26.80
2018-07-25T21:34:24.976Z,26.80
2018-07-25T21:36:53.200Z,26.70
2018-07-25T21:39:21.457Z,26.70
2018-07-25T21:41:49.681Z,26.60
2018-07-25T21:44:17.904Z,26.60
2018-07-25T21:46:46.082Z,26.50
2018-07-25T21:49:14.287Z,26.50
2018-07-25T21:51:42.514Z,26.50
2018-07-25T21:54:10.862Z,26.40
2018-07-25T21:56:39.164Z,26.30
2018-07-25T21:59:07.961Z,26.30
2018-07-25T22:01:36.196Z,26.20
2018-07-25T22:04:04.423Z,26.20
2018-07-25T22:06:33.274Z,26.10
2018-07-25T22:09:01.565Z,26.10
2018-07-25T22:11:29.770Z,26.10
2018-07-25T22:13:58.115Z,26.00
2018-07-25T22:16:27.327Z,26.00
2018-07-25T22:18:55.670Z,25.90
2018-07-25T22:21:23.924Z,25.90
2018-07-25T22:23:52.061Z,25.80
2018-07-25T22:26:20.388Z,25.80
2018-07-25T22:28:48.622Z,25.80
2018-07-25T22:31:17.511Z,25.70
2018-07-25T22:33:45.687Z,25.60
2018-07-25T22:36:14.095Z,25.60
2018-07-25T22:38:42.270Z,25.50
2018-07-25T22:41:10.473Z,25.50
2018-07-25T22:43:39.661Z,25.40
2018-07-25T22:46:07.912Z,25.40
2018-07-25T22:48:36.230Z,25.30
2018-07-25T22:51:04.628Z,25.30
2018-07-25T22:53:32.896Z,25.20
2018-07-25T22:56:01.085Z,25.20
2018-07-25T22:58:29.237Z,25.20
2018-07-25T23:00:57.561Z,25.10
2018-07-25T23:03:25.749Z,25.10
2018-07-25T23:05:53.867Z,25.10
2018-07-25T23:08:22.394Z,25.00
2018-07-25T23:10:50.578Z,25.00
2018-07-25T23:13:18.796Z,25.00
2018-07-25T23:15:47.040Z,24.90
2018-07-25T23:18:15.234Z,24.90
2018-07-25T23:20:43.489Z,24.80
2018-07-25T23:23:11.688Z,24.80
2018-07-25T23:25:39.935Z,24.80
2018-07-25T23:28:08.126Z,24.80
2018-07-25T23:30:36.299Z,24.70
2018-07-25T23:33:04.514Z,24.70
2018-07-25T23:35:32.880Z,24.60
2018-07-25T23:38:01.087Z,24.60
2018-07-25T23:40:29.353Z,24.60
2018-07-25T23:42:57.550Z,24.50
2018-07-25T23:45:25.836Z,24.50
2018-07-25T23:47:54.138Z,24.40
2018-07-25T23:50:22.411Z,24.40
2018-07-25T23:52:50.552Z,24.40
2018-07-25T23:55:18.833Z,24.30
2018-07-25T23:57:46.985Z,24.30
